createdAt,value
2017-08-16T00:01:43.239Z,14.47
2017-08-16T00:04:11.084Z,17.30
2017-08-16T00:06:38.916Z,19.07
2017-08-16T00:09:06.817Z,18.63
2017-08-16T00:11:34.653Z,16.40
2017-08-16T00:14:02.512Z,14.73
2017-08-16T00:16:30.249Z,15.33
2017-08-16T00:18:58.131Z,15.50
2017-08-16T00:21:25.958Z,13.47
2017-08-16T00:23:53.728Z,19.57
2017-08-16T00:26:21.538Z,20.43
2017-08-16T00:28:49.420Z,17.37
2017-08-16T00:31:17.297Z,21.73
2017-08-16T00:33:45.170Z,20.07
2017-08-16T00:36:12.998Z,16.47
2017-08-16T00:38:40.893Z,16.87
2017-08-16T00:41:08.768Z,20.63
2017-08-16T00:43:37.670Z,35.93
2017-08-16T00:46:05.552Z,43.80
2017-08-16T00:51:05.536Z,48.87
2017-08-16T00:53:33.374Z,48.50
2017-08-16T00:56:01.245Z,50.93
2017-08-16T00:58:29.059Z,49.23
2017-08-16T01:00:56.993Z,59.50
2017-08-16T01:03:24.854Z,61.70
2017-08-16T01:05:52.724Z,74.30
2017-08-16T01:08:20.549Z,70.27
2017-08-16T01:10:48.392Z,72.10
2017-08-16T01:13:16.218Z,74.97
2017-08-16T01:15:44.048Z,78.87
2017-08-16T01:18:11.935Z,73.33
2017-08-16T01:20:39.702Z,71.70
2017-08-16T01:23:07.559Z,79.43
2017-08-16T01:25:35.381Z,77.37
2017-08-16T01:28:03.248Z,83.00
2017-08-16T01:30:31.143Z,78.83
2017-08-16T01:32:59.020Z,109.60
2017-08-16T01:35:26.844Z,78.53
2017-08-16T01:37:54.699Z,90.67
2017-08-16T01:40:22.516Z,79.23
2017-08-16T01:42:50.288Z,77.77
2017-08-16T01:45:18.165Z,60.07
2017-08-16T01:47:45.972Z,54.63
2017-08-16T01:50:13.841Z,69.80
2017-08-16T01:52:41.672Z,65.63
2017-08-16T01:55:09.530Z,53.67
2017-08-16T01:57:37.346Z,60.47
2017-08-16T02:00:05.226Z,67.67
2017-08-16T02:02:33.042Z,59.33
2017-08-16T02:05:00.927Z,44.10
2017-08-16T02:07:28.762Z,64.13
2017-08-16T02:09:56.669Z,54.70
2017-08-16T02:12:24.485Z,56.80
2017-08-16T02:14:52.620Z,67.30
2017-08-16T02:17:20.458Z,61.13
2017-08-16T02:19:48.332Z,92.00
2017-08-16T02:22:16.220Z,129.37
2017-08-16T02:24:44.073Z,155.27
2017-08-16T02:27:11.938Z,118.23
2017-08-16T02:29:39.785Z,108.53
2017-08-16T02:32:07.654Z,101.83
2017-08-16T02:34:35.473Z,89.37
2017-08-16T02:37:03.343Z,87.73
2017-08-16T02:39:31.159Z,97.77
2017-08-16T02:41:58.930Z,91.90
2017-08-16T02:44:26.760Z,76.10
2017-08-16T02:46:54.629Z,74.37
2017-08-16T02:49:22.483Z,92.33
2017-08-16T02:51:50.350Z,88.50
2017-08-16T02:54:18.229Z,89.80
2017-08-16T02:56:46.088Z,83.57
2017-08-16T02:59:13.966Z,85.80
2017-08-16T03:01:41.891Z,86.67
2017-08-16T03:04:09.820Z,79.47
2017-08-16T03:06:37.655Z,80.43
2017-08-16T03:09:05.611Z,74.70
2017-08-16T03:11:33.468Z,76.67
2017-08-16T03:14:01.382Z,76.63
2017-08-16T03:16:29.139Z,68.20
2017-08-16T03:18:57.029Z,76.43
2017-08-16T03:21:24.945Z,67.23
2017-08-16T03:23:52.823Z,79.10
2017-08-16T03:26:20.635Z,74.90
2017-08-16T03:28:48.481Z,87.20
2017-08-16T03:31:16.389Z,75.20
2017-08-16T03:33:44.274Z,62.60
2017-08-16T03:36:12.197Z,70.50
2017-08-16T03:38:40.068Z,69.00
2017-08-16T03:41:07.898Z,66.53
2017-08-16T03:43:35.772Z,76.53
2017-08-16T03:46:03.678Z,72.67
2017-08-16T03:48:31.566Z,68.17
2017-08-16T03:50:59.495Z,76.10
2017-08-16T03:53:27.392Z,77.37
2017-08-16T03:55:55.281Z,83.73
2017-08-16T03:58:23.141Z,84.73
2017-08-16T04:00:50.985Z,81.50
2017-08-16T04:03:18.920Z,94.70
2017-08-16T04:05:46.795Z,82.63
2017-08-16T04:08:14.733Z,89.83
2017-08-16T04:10:42.663Z,79.17
2017-08-16T04:13:10.456Z,81.80
2017-08-16T04:15:38.249Z,80.40
2017-08-16T04:18:06.197Z,86.27
2017-08-16T04:20:34.086Z,90.60
2017-08-16T04:23:02.026Z,91.07
2017-08-16T04:25:29.918Z,80.33
2017-08-16T04:27:57.844Z,95.57
2017-08-16T04:30:25.696Z,88.23
2017-08-16T04:32:53.615Z,94.30
2017-08-16T04:35:21.503Z,104.03
2017-08-16T04:37:49.448Z,88.20
2017-08-16T04:40:17.311Z,96.23
2017-08-16T04:42:45.149Z,104.50
2017-08-16T04:45:12.993Z,101.07
2017-08-16T04:47:40.772Z,100.90
2017-08-16T04:50:08.609Z,94.03
2017-08-16T04:52:36.368Z,91.03
2017-08-16T04:55:04.164Z,110.63
2017-08-16T04:57:31.944Z,107.07
2017-08-16T04:59:59.772Z,102.43
2017-08-16T05:02:27.559Z,102.67
2017-08-16T05:04:55.323Z,111.30
2017-08-16T05:07:23.103Z,102.53
2017-08-16T05:09:50.903Z,99.83
2017-08-16T05:12:18.706Z,115.10
2017-08-16T05:14:46.585Z,113.70
2017-08-16T05:17:14.376Z,117.50
2017-08-16T05:19:42.140Z,103.23
2017-08-16T05:22:09.976Z,97.97
2017-08-16T05:24:37.727Z,100.70
2017-08-16T05:27:05.558Z,108.37
2017-08-16T05:29:33.432Z,99.97
2017-08-16T05:32:01.231Z,93.47
2017-08-16T05:34:29.001Z,95.43
2017-08-16T05:36:56.841Z,86.50
2017-08-16T05:39:24.653Z,105.10
2017-08-16T05:41:52.499Z,99.40
2017-08-16T05:44:20.260Z,88.57
2017-08-16T05:46:48.087Z,90.40
2017-08-16T05:49:15.876Z,100.60
2017-08-16T05:51:43.669Z,96.07
2017-08-16T05:54:11.437Z,91.63
2017-08-16T05:56:39.216Z,96.37
2017-08-16T05:59:07.008Z,86.47
2017-08-16T06:01:34.747Z,83.23
2017-08-16T06:04:02.586Z,92.20
2017-08-16T06:06:30.296Z,88.13
2017-08-16T06:08:58.136Z,86.43
2017-08-16T06:11:25.870Z,79.43
2017-08-16T06:13:53.667Z,81.47
2017-08-16T06:16:21.416Z,79.90
2017-08-16T06:18:49.200Z,89.40
2017-08-16T06:21:16.989Z,91.73
2017-08-16T06:23:44.767Z,85.37
2017-08-16T06:26:12.511Z,85.93
2017-08-16T06:28:40.237Z,96.10
2017-08-16T06:31:08.027Z,89.60
2017-08-16T06:33:35.778Z,88.77
2017-08-16T06:36:03.553Z,91.73
2017-08-16T06:38:31.285Z,93.27
2017-08-16T06:40:59.089Z,90.63
2017-08-16T06:43:26.843Z,99.33
2017-08-16T06:45:54.712Z,91.37
2017-08-16T06:48:22.678Z,91.17
2017-08-16T06:50:50.541Z,88.37
2017-08-16T06:53:18.352Z,81.83
2017-08-16T06:55:46.237Z,87.47
2017-08-16T06:58:14.065Z,88.33
2017-08-16T07:00:42.022Z,90.43
2017-08-16T07:03:09.864Z,91.47
2017-08-16T07:05:37.708Z,89.37
2017-08-16T07:08:05.660Z,98.00
2017-08-16T07:10:33.531Z,82.00
2017-08-16T07:13:01.441Z,83.67
2017-08-16T07:15:29.371Z,77.57
2017-08-16T07:17:57.174Z,79.40
2017-08-16T07:20:24.997Z,73.00
2017-08-16T07:22:52.806Z,68.00
2017-08-16T07:25:20.604Z,66.27
2017-08-16T07:27:48.406Z,56.00
2017-08-16T07:30:16.224Z,57.53
2017-08-16T07:32:44.007Z,55.87
2017-08-16T07:35:11.790Z,58.27
2017-08-16T07:37:39.592Z,60.97
2017-08-16T07:40:07.322Z,43.13
2017-08-16T07:42:35.212Z,51.33
2017-08-16T07:45:03.036Z,52.07
2017-08-16T07:47:30.776Z,44.97
2017-08-16T07:49:58.651Z,41.83
2017-08-16T07:52:26.494Z,38.13
2017-08-16T07:54:54.418Z,39.40
2017-08-16T07:57:22.270Z,38.97
2017-08-16T07:59:50.168Z,36.33
2017-08-16T08:02:17.927Z,36.13
2017-08-16T08:04:45.820Z,34.43
2017-08-16T08:07:13.674Z,39.53
2017-08-16T08:09:41.623Z,35.60
2017-08-16T08:12:09.484Z,38.07
2017-08-16T08:14:37.313Z,40.53
2017-08-16T08:17:05.146Z,37.00
2017-08-16T08:19:32.899Z,38.23
2017-08-16T08:22:00.685Z,38.03
2017-08-16T08:24:28.477Z,34.10
2017-08-16T08:26:56.417Z,40.23
2017-08-16T08:29:24.184Z,32.67
2017-08-16T08:31:51.973Z,33.70
2017-08-16T08:34:19.830Z,26.90
2017-08-16T08:36:47.628Z,28.27
2017-08-16T08:39:15.463Z,28.80
2017-08-16T08:41:43.371Z,35.03
2017-08-16T08:44:11.232Z,29.00
2017-08-16T08:46:39.197Z,28.07
2017-08-16T08:49:07.043Z,26.93
2017-08-16T08:51:34.890Z,24.43
2017-08-16T08:54:02.806Z,25.90
2017-08-16T08:56:30.684Z,29.00
2017-08-16T08:58:58.587Z,22.63
2017-08-16T09:01:26.426Z,20.80
2017-08-16T09:03:54.307Z,21.03
2017-08-16T09:06:22.184Z,20.53
2017-08-16T09:08:50.109Z,20.13
2017-08-16T09:11:17.847Z,22.23
2017-08-16T09:13:45.777Z,18.30
2017-08-16T09:16:13.633Z,20.10
2017-08-16T09:18:41.497Z,17.03
2017-08-16T09:21:09.302Z,23.13
2017-08-16T09:23:37.158Z,19.63
2017-08-16T09:26:05.103Z,18.87
2017-08-16T09:28:32.963Z,16.20
2017-08-16T09:31:00.841Z,17.30
2017-08-16T09:33:28.684Z,16.93
2017-08-16T09:35:56.566Z,15.77
2017-08-16T09:38:24.395Z,14.67
2017-08-16T09:40:52.322Z,14.97
2017-08-16T09:43:20.202Z,12.80
2017-08-16T09:45:48.088Z,12.07
2017-08-16T09:48:15.941Z,14.30
2017-08-16T09:50:43.788Z,15.47
2017-08-16T09:53:11.681Z,10.83
2017-08-16T09:55:39.515Z,10.00
2017-08-16T09:58:07.416Z,13.50
2017-08-16T10:00:35.245Z,8.60
2017-08-16T10:03:03.150Z,9.60
2017-08-16T10:05:30.998Z,8.93
2017-08-16T10:07:58.864Z,8.03
2017-08-16T10:10:26.778Z,8.20
2017-08-16T10:12:54.663Z,17.47
2017-08-16T10:15:22.505Z,8.23
2017-08-16T10:17:50.308Z,13.53
2017-08-16T10:20:18.180Z,9.77
2017-08-16T10:22:46.008Z,8.57
2017-08-16T10:25:13.928Z,7.27
2017-08-16T10:27:41.764Z,6.80
2017-08-16T10:30:09.671Z,6.77
2017-08-16T10:32:37.402Z,9.60
2017-08-16T10:35:05.220Z,7.10
2017-08-16T10:37:32.949Z,8.40
2017-08-16T10:40:00.766Z,6.93
2017-08-16T10:42:28.650Z,7.60
2017-08-16T10:44:56.470Z,7.47
2017-08-16T10:47:24.326Z,8.70
2017-08-16T10:49:52.241Z,5.83
2017-08-16T10:52:20.207Z,7.43
2017-08-16T10:54:48.091Z,6.77
2017-08-16T10:57:15.939Z,8.60
2017-08-16T10:59:43.777Z,7.77
2017-08-16T11:02:11.650Z,6.73
2017-08-16T11:04:39.486Z,6.23
2017-08-16T11:07:07.370Z,6.77
2017-08-16T11:09:35.233Z,6.40
2017-08-16T11:12:03.120Z,7.53
2017-08-16T11:14:30.955Z,7.63
2017-08-16T11:16:58.895Z,7.60
2017-08-16T11:19:26.750Z,8.40
2017-08-16T11:21:54.661Z,7.10
2017-08-16T11:24:22.533Z,7.80
2017-08-16T11:26:50.379Z,8.30
2017-08-16T11:29:18.165Z,10.47
2017-08-16T11:31:45.881Z,7.40
2017-08-16T11:34:13.659Z,6.40
2017-08-16T11:36:41.378Z,7.33
2017-08-16T11:39:09.163Z,7.13
2017-08-16T11:41:36.911Z,6.33
2017-08-16T11:44:04.688Z,8.33
2017-08-16T11:46:32.404Z,7.73
2017-08-16T11:49:00.167Z,5.70
2017-08-16T11:51:27.888Z,8.33
2017-08-16T11:53:55.641Z,6.93
2017-08-16T11:56:23.386Z,5.00
2017-08-16T11:58:51.135Z,4.13
2017-08-16T12:01:18.936Z,4.40
2017-08-16T12:03:46.655Z,5.87
2017-08-16T12:06:14.466Z,3.80
2017-08-16T12:08:42.239Z,4.00
2017-08-16T12:11:10.086Z,3.37
2017-08-16T12:13:37.811Z,7.40
2017-08-16T12:16:05.581Z,4.33
2017-08-16T12:18:33.309Z,6.77
2017-08-16T12:21:01.068Z,4.10
2017-08-16T12:23:28.809Z,4.40
2017-08-16T12:25:56.578Z,4.47
2017-08-16T12:28:24.337Z,4.50
2017-08-16T12:30:52.094Z,4.13
2017-08-16T12:33:20.462Z,4.40
2017-08-16T12:35:48.322Z,4.20
2017-08-16T12:38:16.210Z,6.37
2017-08-16T12:40:44.031Z,4.03
2017-08-16T12:43:11.893Z,3.97
2017-08-16T12:45:39.720Z,3.60
2017-08-16T12:48:07.578Z,3.57
2017-08-16T12:50:35.323Z,3.30
2017-08-16T12:53:03.107Z,4.20
2017-08-16T12:55:30.886Z,3.30
2017-08-16T12:57:58.735Z,3.33
2017-08-16T13:00:26.552Z,3.47
2017-08-16T13:02:54.393Z,3.20
2017-08-16T13:05:22.328Z,3.10
2017-08-16T13:07:50.220Z,3.10
2017-08-16T13:10:18.164Z,3.13
2017-08-16T13:12:45.920Z,4.47
2017-08-16T13:15:13.787Z,3.20
2017-08-16T13:17:41.554Z,3.70
2017-08-16T13:20:09.445Z,2.73
2017-08-16T13:22:37.287Z,3.17
2017-08-16T13:25:05.186Z,2.80
2017-08-16T13:27:33.010Z,2.60
2017-08-16T13:30:00.876Z,2.70
2017-08-16T13:32:28.714Z,3.30
2017-08-16T13:34:56.597Z,3.30
2017-08-16T13:37:24.426Z,2.57
2017-08-16T13:39:52.248Z,3.00
2017-08-16T13:42:20.057Z,3.37
2017-08-16T13:44:47.913Z,2.53
2017-08-16T13:47:15.817Z,2.93
2017-08-16T13:49:43.649Z,2.90
2017-08-16T13:52:11.550Z,2.77
2017-08-16T13:54:39.369Z,3.47
2017-08-16T13:57:07.137Z,3.20
2017-08-16T13:59:35.011Z,4.77
2017-08-16T14:02:02.893Z,5.33
2017-08-16T14:04:30.717Z,2.87
2017-08-16T14:06:58.578Z,2.93
2017-08-16T14:09:26.437Z,2.50
2017-08-16T14:11:54.235Z,2.90
2017-08-16T14:14:22.080Z,3.03
2017-08-16T14:16:49.912Z,3.67
2017-08-16T14:19:17.801Z,2.70
2017-08-16T14:21:45.631Z,3.27
2017-08-16T14:24:13.506Z,3.33
2017-08-16T14:26:41.346Z,3.10
2017-08-16T14:29:09.206Z,3.57
2017-08-16T14:31:37.048Z,6.90
2017-08-16T14:34:04.936Z,3.27
2017-08-16T14:36:32.745Z,7.17
2017-08-16T14:39:00.633Z,3.00
2017-08-16T14:41:28.371Z,3.00
2017-08-16T14:43:56.257Z,3.63
2017-08-16T14:46:24.007Z,2.83
2017-08-16T14:48:51.894Z,3.13
2017-08-16T14:51:19.766Z,3.00
2017-08-16T14:53:47.591Z,2.40
2017-08-16T14:56:15.464Z,4.97
2017-08-16T14:58:43.288Z,2.63
2017-08-16T15:01:11.160Z,4.13
2017-08-16T15:03:39.004Z,4.57
2017-08-16T15:06:06.887Z,4.70
2017-08-16T15:08:34.697Z,2.90
2017-08-16T15:11:02.645Z,2.70
2017-08-16T15:13:30.386Z,2.93
2017-08-16T15:15:58.180Z,5.37
2017-08-16T15:18:25.930Z,4.13
2017-08-16T15:20:53.760Z,2.73
2017-08-16T15:23:21.650Z,2.50
2017-08-16T15:25:49.461Z,2.70
2017-08-16T15:28:17.327Z,3.33
2017-08-16T15:30:45.137Z,3.13
2017-08-16T15:33:13.022Z,2.90
2017-08-16T15:35:40.849Z,3.27
2017-08-16T15:38:08.740Z,4.00
2017-08-16T15:40:36.561Z,3.10
2017-08-16T15:43:04.444Z,3.27
2017-08-16T15:45:32.267Z,2.83
2017-08-16T15:48:00.153Z,4.33
2017-08-16T15:50:28.005Z,2.83
2017-08-16T15:52:55.815Z,2.77
2017-08-16T15:55:23.741Z,2.93
2017-08-16T15:57:51.576Z,4.20
2017-08-16T16:00:19.354Z,2.90
2017-08-16T16:02:47.189Z,4.73
2017-08-16T16:05:14.978Z,3.10
2017-08-16T16:07:42.716Z,7.13
2017-08-16T16:10:10.630Z,2.70
2017-08-16T16:12:38.478Z,4.27
2017-08-16T16:15:06.524Z,3.87
2017-08-16T16:17:34.361Z,3.30
2017-08-16T16:20:02.249Z,11.93
2017-08-16T16:22:30.084Z,5.00
2017-08-16T16:24:57.950Z,4.10
2017-08-16T16:27:25.803Z,4.40
2017-08-16T16:29:53.640Z,3.50
2017-08-16T16:32:21.477Z,3.63
2017-08-16T16:34:49.228Z,3.50
2017-08-16T16:37:17.103Z,3.37
2017-08-16T16:39:44.947Z,4.37
2017-08-16T16:42:12.842Z,4.60
2017-08-16T16:44:40.695Z,3.20
2017-08-16T16:47:08.556Z,6.53
2017-08-16T16:49:36.417Z,3.77
2017-08-16T16:52:04.244Z,4.80
2017-08-16T16:54:32.145Z,3.27
2017-08-16T16:56:59.968Z,3.10
2017-08-16T16:59:27.836Z,4.90
2017-08-16T17:01:55.672Z,4.47
2017-08-16T17:04:23.441Z,5.10
2017-08-16T17:06:51.171Z,4.30
2017-08-16T17:09:18.965Z,4.00
2017-08-16T17:11:46.708Z,4.53
2017-08-16T17:14:14.493Z,4.53
2017-08-16T17:16:42.209Z,4.03
2017-08-16T17:19:10.006Z,4.40
2017-08-16T17:21:37.771Z,4.47
2017-08-16T17:24:05.600Z,3.90
2017-08-16T17:26:33.404Z,9.00
2017-08-16T17:29:01.146Z,4.67
2017-08-16T17:31:28.925Z,4.97
2017-08-16T17:33:56.777Z,4.27
2017-08-16T17:36:24.593Z,5.10
2017-08-16T17:38:52.466Z,5.20
2017-08-16T17:41:20.353Z,4.50
2017-08-16T17:43:48.209Z,7.20
2017-08-16T17:46:16.105Z,4.50
2017-08-16T17:48:43.932Z,4.93
2017-08-16T17:51:11.748Z,4.53
2017-08-16T17:53:39.485Z,5.20
2017-08-16T17:56:07.265Z,7.73
2017-08-16T17:58:35.094Z,5.70
2017-08-16T18:01:02.987Z,4.57
2017-08-16T18:03:30.885Z,6.77
2017-08-16T18:05:58.748Z,5.03
2017-08-16T18:08:26.653Z,5.90
2017-08-16T18:10:54.537Z,5.30
2017-08-16T18:13:22.419Z,5.37
2017-08-16T18:15:50.249Z,8.57
2017-08-16T18:18:18.072Z,8.60
2017-08-16T18:20:45.800Z,6.97
2017-08-16T18:23:13.617Z,6.47
2017-08-16T18:25:41.381Z,5.17
2017-08-16T18:28:09.178Z,5.50
2017-08-16T18:30:36.941Z,7.10
2017-08-16T18:33:04.713Z,5.93
2017-08-16T18:35:32.466Z,5.93
2017-08-16T18:38:00.300Z,5.40
2017-08-16T18:40:28.059Z,5.00
2017-08-16T18:42:58.991Z,12.33
2017-08-16T18:45:28.661Z,6.57
2017-08-16T18:47:58.129Z,6.13
2017-08-16T18:50:27.390Z,7.50
2017-08-16T18:52:57.118Z,6.87
2017-08-16T18:55:26.298Z,6.30
2017-08-16T18:57:55.350Z,6.70
2017-08-16T19:00:24.595Z,8.47
2017-08-16T19:02:55.513Z,6.97
2017-08-16T19:05:26.257Z,13.10
2017-08-16T19:07:55.243Z,6.80
2017-08-16T19:10:25.618Z,7.17
2017-08-16T19:12:55.229Z,7.30
2017-08-16T19:15:24.616Z,6.67
2017-08-16T19:17:54.717Z,6.60
2017-08-16T19:20:23.145Z,7.37
2017-08-16T19:22:52.778Z,6.77
2017-08-16T19:25:21.397Z,7.10
2017-08-16T19:27:51.001Z,7.50
2017-08-16T19:30:21.617Z,7.57
2017-08-16T19:32:52.029Z,5.27
2017-08-16T19:35:22.466Z,6.57
2017-08-16T19:37:51.216Z,6.77
2017-08-16T19:40:20.568Z,6.27
2017-08-16T19:42:50.927Z,5.80
2017-08-16T19:45:19.742Z,6.10
2017-08-16T19:47:50.223Z,5.63
2017-08-16T19:50:20.411Z,6.23
2017-08-16T19:52:50.706Z,6.37
2017-08-16T19:55:19.042Z,7.57
2017-08-16T19:57:50.927Z,5.90
2017-08-16T20:00:20.970Z,7.10
2017-08-16T20:02:52.077Z,11.67
2017-08-16T20:05:20.954Z,8.73
2017-08-16T20:07:50.421Z,8.83
2017-08-16T20:10:18.834Z,9.63
2017-08-16T20:12:47.556Z,8.10
2017-08-16T20:15:18.520Z,11.13
2017-08-16T20:17:50.186Z,13.13
2017-08-16T20:20:19.224Z,8.23
2017-08-16T20:22:48.565Z,7.60
2017-08-16T20:25:17.621Z,7.00
2017-08-16T20:27:48.202Z,8.00
2017-08-16T20:30:17.886Z,7.33
2017-08-16T20:32:47.284Z,8.90
2017-08-16T20:35:20.225Z,7.63
2017-08-16T20:37:50.176Z,9.00
2017-08-16T20:40:18.029Z,6.70
2017-08-16T20:42:46.008Z,6.70
2017-08-16T20:45:17.361Z,8.37
2017-08-16T20:47:48.561Z,6.87
2017-08-16T20:50:16.339Z,7.43
2017-08-16T20:52:44.639Z,7.10
2017-08-16T20:55:18.921Z,8.97
2017-08-16T20:57:47.265Z,10.77
2017-08-16T21:00:15.665Z,9.20
2017-08-16T21:02:44.868Z,8.10
2017-08-16T21:05:15.042Z,7.20
2017-08-16T21:07:45.023Z,7.87
2017-08-16T21:10:15.423Z,6.73
2017-08-16T21:12:43.490Z,7.13
2017-08-16T21:15:16.114Z,6.53
2017-08-16T21:17:45.694Z,8.60
2017-08-16T21:20:13.649Z,7.93
2017-08-16T21:22:43.315Z,7.93
2017-08-16T21:25:16.026Z,8.50
2017-08-16T21:27:45.129Z,7.73
2017-08-16T21:30:15.893Z,7.20
2017-08-16T21:32:45.383Z,11.30
2017-08-16T21:35:16.041Z,10.63
2017-08-16T21:37:44.022Z,7.30
2017-08-16T21:40:12.109Z,8.07
2017-08-16T21:42:42.246Z,6.77
2017-08-16T21:45:13.188Z,6.77
2017-08-16T21:47:42.763Z,6.73
2017-08-16T21:50:11.333Z,6.27
2017-08-16T21:52:41.576Z,6.80
2017-08-16T21:55:13.338Z,8.80
2017-08-16T21:57:43.056Z,8.40
2017-08-16T22:00:14.163Z,6.87
2017-08-16T22:02:43.470Z,8.70
2017-08-16T22:05:13.556Z,6.93
2017-08-16T22:07:42.328Z,10.10
2017-08-16T22:10:13.637Z,6.50
2017-08-16T22:12:43.158Z,8.33
2017-08-16T22:15:11.293Z,6.77
2017-08-16T22:17:39.845Z,8.60
2017-08-16T22:20:08.085Z,11.53
2017-08-16T22:22:38.084Z,12.03
2017-08-16T22:25:05.939Z,8.50
2017-08-16T22:27:34.368Z,10.13
2017-08-16T22:30:03.725Z,6.80
2017-08-16T22:32:32.367Z,7.73
2017-08-16T22:35:05.429Z,5.37
2017-08-16T22:37:33.647Z,6.53
2017-08-16T22:40:03.005Z,6.40
2017-08-16T22:42:31.829Z,17.60
2017-08-16T22:45:00.376Z,10.67
2017-08-16T22:47:29.684Z,8.03
2017-08-16T22:49:58.586Z,8.30
2017-08-16T22:55:02.441Z,7.10
2017-08-16T22:57:30.725Z,6.77
2017-08-16T22:59:59.136Z,8.27
2017-08-16T23:02:27.713Z,9.50
2017-08-16T23:04:56.550Z,8.13
2017-08-16T23:07:26.552Z,7.47
2017-08-16T23:09:56.469Z,9.33
2017-08-16T23:12:25.440Z,9.90
2017-08-16T23:14:54.130Z,6.83
2017-08-16T23:17:24.078Z,9.23
2017-08-16T23:19:54.698Z,9.70
2017-08-16T23:22:25.297Z,11.80
2017-08-16T23:24:53.353Z,6.13
2017-08-16T23:27:24.690Z,9.00
2017-08-16T23:29:53.538Z,12.87
2017-08-16T23:32:22.877Z,11.53
2017-08-16T23:34:52.859Z,7.60
2017-08-16T23:37:21.698Z,9.50
2017-08-16T23:39:52.589Z,8.73
2017-08-16T23:42:21.553Z,7.13
2017-08-16T23:44:50.437Z,12.10
2017-08-16T23:47:19.482Z,7.80
2017-08-16T23:49:48.413Z,6.40
2017-08-16T23:52:17.207Z,9.63
2017-08-16T23:54:46.952Z,9.20
2017-08-16T23:57:16.514Z,7.80
2017-08-16T23:59:44.749Z,7.30
